Hauptseite
METAR-TAF:

METAR-TAF

Flughäfen :

Dschidda, Saudi-Arabien

Internationaler König-Abd-al-Aziz-Flughafen

Breite: 21-42N, Länge: 039-11E, Höhe: 15 m

Beobachtung

Neuester Wetterbericht von vor 31 Minuten, um 08:00 UTC
Wind 4 kt aus West/Nordwest
Temperatur 38°C
Luftfeuchtigkeit 40%
Luftdruck 1006 hPa
Sichtweite 10 km oder mehr
Leicht bewölkt in der Höhe von 4000 ft

METAR: OEJN 240800Z 29004KT 9999 FEW040 38/22 Q1006 NOSIG

Zeit: 11:31 (08:31 UTC)

Prognose

Neuester Wetterbericht von vor 4 Stunden und 31 Minuten, um 04:00 UTC
Gültige Prognose vom 24 um 06 UTC bis 25 um 12 UTC
Wind 8 kt aus Nord/Nordwest, Böen bis zu 18 kt
Sichtweite: 8000 m
Leicht bewölkt in der Höhe von 4000 ft
Aufgelockert bewölkt in der Höhe von 10000 ft
Übergehend zu
vom 24 um 18 UTC bis 24 um 20 UTC
Wind 6 kt aus Nord

TAF: OEJN 240400Z 2406/2512 33008G18KT 8000 FEW040 SCT100 BECMG 2418/2420 01006KT

Wetterbeobachtungen und Prognosen von mehr als 4000 Flughäfen (METAR und TAF Bericht).

Die verfügbaren Stationen werden durch gelbe und rote Markierungen auf der Karte dargestellt.

Führen Sie die Maus auf sie, um den Namen der Station zu sehen.

Darauf klicken, um die Beobachtung von Wetterbeobachtungen und Prognosen zu sehen.

Um die Karte zu ändern : klicken Sie auf den grünen Tasten mit einem schwarzen Kreuz Zum Vergrößern, auf den grünen Button mit einem Gedankenstrich zu verkleinern, oder auf die grünen Pfeile für benachbarte Karten.


METAR-TAF: